sensor_id;sensor_type;location;lat;lon;timestamp;temperature;humidity
65462;DHT22;53236;43.666;18.444;2023-03-01T00:01:02;1.00;99.90
65462;DHT22;53236;43.666;18.444;2023-03-01T00:03:28;1.00;99.90
65462;DHT22;53236;43.666;18.444;2023-03-01T00:05:54;1.00;99.90
65462;DHT22;53236;43.666;18.444;2023-03-01T00:08:20;0.90;99.90
65462;DHT22;53236;43.666;18.444;2023-03-01T00:10:46;0.90;99.90
65462;DHT22;53236;43.666;18.444;2023-03-01T00:13:12;0.90;99.90
65462;DHT22;53236;43.666;18.444;2023-03-01T00:15:41;0.90;99.90
65462;DHT22;53236;43.666;18.444;2023-03-01T00:18:07;1.00;99.90
65462;DHT22;53236;43.666;18.444;2023-03-01T00:20:34;1.00;99.90
65462;DHT22;53236;43.666;18.444;2023-03-01T00:23:00;1.00;99.90
65462;DHT22;53236;43.666;18.444;2023-03-01T00:25:25;1.00;99.90
65462;DHT22;53236;43.666;18.444;2023-03-01T00:27:51;1.00;99.90
65462;DHT22;53236;43.666;18.444;2023-03-01T00:30:17;1.00;99.90
65462;DHT22;53236;43.666;18.444;2023-03-01T00:32:42;1.10;99.90
65462;DHT22;53236;43.666;18.444;2023-03-01T00:35:08;1.00;99.90
65462;DHT22;53236;43.666;18.444;2023-03-01T00:37:34;1.10;99.90
65462;DHT22;53236;43.666;18.444;2023-03-01T00:39:59;1.10;99.90
65462;DHT22;53236;43.666;18.444;2023-03-01T00:42:25;1.10;99.90
65462;DHT22;53236;43.666;18.444;2023-03-01T00:44:51;1.10;99.90
65462;DHT22;53236;43.666;18.444;2023-03-01T00:47:16;1.00;99.90
65462;DHT22;53236;43.666;18.444;2023-03-01T00:49:42;1.00;99.90
65462;DHT22;53236;43.666;18.444;2023-03-01T00:52:08;0.90;99.90
65462;DHT22;53236;43.666;18.444;2023-03-01T00:54:33;1.00;99.90
65462;DHT22;53236;43.666;18.444;2023-03-01T00:56:59;1.00;99.90
65462;DHT22;53236;43.666;18.444;2023-03-01T00:59:25;1.00;99.90
65462;DHT22;53236;43.666;18.444;2023-03-01T01:01:50;0.90;99.90
65462;DHT22;53236;43.666;18.444;2023-03-01T01:04:16;0.90;99.90
65462;DHT22;53236;43.666;18.444;2023-03-01T01:06:46;0.90;99.90
65462;DHT22;53236;43.666;18.444;2023-03-01T01:09:14;1.00;99.90
65462;DHT22;53236;43.666;18.444;2023-03-01T01:11:45;0.90;99.90
65462;DHT22;53236;43.666;18.444;2023-03-01T01:14:11;1.00;99.90
65462;DHT22;53236;43.666;18.444;2023-03-01T01:16:37;1.00;99.90
65462;DHT22;53236;43.666;18.444;2023-03-01T01:19:03;1.00;99.90
65462;DHT22;53236;43.666;18.444;2023-03-01T01:21:28;1.10;99.90
65462;DHT22;53236;43.666;18.444;2023-03-01T01:23:54;1.10;99.90
65462;DHT22;53236;43.666;18.444;2023-03-01T01:26:31;1.00;99.90
65462;DHT22;53236;43.666;18.444;2023-03-01T01:28:58;1.00;99.90
65462;DHT22;53236;43.666;18.444;2023-03-01T01:31:25;0.90;99.90
65462;DHT22;53236;43.666;18.444;2023-03-01T01:33:51;0.90;99.90
65462;DHT22;53236;43.666;18.444;2023-03-01T01:36:17;1.00;99.90
65462;DHT22;53236;43.666;18.444;2023-03-01T01:38:43;0.90;99.90
65462;DHT22;53236;43.666;18.444;2023-03-01T01:41:11;0.90;99.90
65462;DHT22;53236;43.666;18.444;2023-03-01T01:43:42;0.80;99.90
65462;DHT22;53236;43.666;18.444;2023-03-01T01:48:49;0.80;99.90
65462;DHT22;53236;43.666;18.444;2023-03-01T01:51:21;0.70;99.90
65462;DHT22;53236;43.666;18.444;2023-03-01T01:53:53;0.60;99.90
65462;DHT22;53236;43.666;18.444;2023-03-01T01:56:21;0.60;99.90
65462;DHT22;53236;43.666;18.444;2023-03-01T01:58:49;0.50;99.90
65462;DHT22;53236;43.666;18.444;2023-03-01T02:01:15;0.60;99.90
65462;DHT22;53236;43.666;18.444;2023-03-01T02:03:43;0.50;99.90
65462;DHT22;53236;43.666;18.444;2023-03-01T02:06:21;0.60;99.90
65462;DHT22;53236;43.666;18.444;2023-03-01T02:08:57;0.50;99.90
65462;DHT22;53236;43.666;18.444;2023-03-01T02:11:25;0.50;99.90
65462;DHT22;53236;43.666;18.444;2023-03-01T02:13:52;0.50;99.90
65462;DHT22;53236;43.666;18.444;2023-03-01T02:16:19;0.50;99.90
65462;DHT22;53236;43.666;18.444;2023-03-01T02:18:45;0.50;99.90
65462;DHT22;53236;43.666;18.444;2023-03-01T02:21:23;0.50;99.90
65462;DHT22;53236;43.666;18.444;2023-03-01T02:23:53;0.40;99.90
65462;DHT22;53236;43.666;18.444;2023-03-01T02:26:25;0.40;99.90
65462;DHT22;53236;43.666;18.444;2023-03-01T02:28:55;0.40;99.90
65462;DHT22;53236;43.666;18.444;2023-03-01T02:31:21;0.40;99.90
65462;DHT22;53236;43.666;18.444;2023-03-01T02:34:07;0.40;99.90
65462;DHT22;53236;43.666;18.444;2023-03-01T02:37:00;0.30;99.90
65462;DHT22;53236;43.666;18.444;2023-03-01T02:39:47;0.30;99.90
65462;DHT22;53236;43.666;18.444;2023-03-01T02:42:17;0.40;99.90
65462;DHT22;53236;43.666;18.444;2023-03-01T02:44:44;0.30;99.90
65462;DHT22;53236;43.666;18.444;2023-03-01T02:47:10;0.40;99.90
65462;DHT22;53236;43.666;18.444;2023-03-01T02:49:36;0.40;99.90
65462;DHT22;53236;43.666;18.444;2023-03-01T02:55:05;0.40;99.90
65462;DHT22;53236;43.666;18.444;2023-03-01T02:57:34;0.40;99.90
65462;DHT22;53236;43.666;18.444;2023-03-01T03:00:05;0.30;99.90
65462;DHT22;53236;43.666;18.444;2023-03-01T03:02:35;0.30;99.90
65462;DHT22;53236;43.666;18.444;2023-03-01T03:07:32;0.30;99.90
65462;DHT22;53236;43.666;18.444;2023-03-01T03:09:59;0.30;99.90
65462;DHT22;53236;43.666;18.444;2023-03-01T03:12:25;0.30;99.90
65462;DHT22;53236;43.666;18.444;2023-03-01T03:14:51;0.30;99.90
65462;DHT22;53236;43.666;18.444;2023-03-01T03:17:16;0.30;99.90
65462;DHT22;53236;43.666;18.444;2023-03-01T03:19:42;0.30;99.90
65462;DHT22;53236;43.666;18.444;2023-03-01T03:22:11;0.30;99.90
65462;DHT22;53236;43.666;18.444;2023-03-01T03:24:37;0.40;99.90
65462;DHT22;53236;43.666;18.444;2023-03-01T03:27:07;0.40;99.90
65462;DHT22;53236;43.666;18.444;2023-03-01T03:29:33;0.40;99.90
65462;DHT22;53236;43.666;18.444;2023-03-01T03:31:59;0.30;99.90
65462;DHT22;53236;43.666;18.444;2023-03-01T03:34:25;0.30;99.90
65462;DHT22;53236;43.666;18.444;2023-03-01T03:36:55;0.30;99.90
65462;DHT22;53236;43.666;18.444;2023-03-01T03:39:25;0.20;99.90
65462;DHT22;53236;43.666;18.444;2023-03-01T03:41:53;0.30;99.90
65462;DHT22;53236;43.666;18.444;2023-03-01T03:44:19;0.20;99.90
65462;DHT22;53236;43.666;18.444;2023-03-01T03:46:45;0.20;99.90
65462;DHT22;53236;43.666;18.444;2023-03-01T03:49:10;0.20;99.90
65462;DHT22;53236;43.666;18.444;2023-03-01T03:51:36;0.10;99.90
65462;DHT22;53236;43.666;18.444;2023-03-01T03:54:02;0.10;99.90
65462;DHT22;53236;43.666;18.444;2023-03-01T03:56:27;0.10;99.90
65462;DHT22;53236;43.666;18.444;2023-03-01T03:58:53;0.00;99.90
65462;DHT22;53236;43.666;18.444;2023-03-01T04:01:19;0.00;99.90
65462;DHT22;53236;43.666;18.444;2023-03-01T04:03:44;0.00;99.90
65462;DHT22;53236;43.666;18.444;2023-03-01T04:06:14;0.00;99.90
65462;DHT22;53236;43.666;18.444;2023-03-01T04:08:40;0.00;99.90
65462;DHT22;53236;43.666;18.444;2023-03-01T04:11:06;0.00;99.90
65462;DHT22;53236;43.666;18.444;2023-03-01T04:13:53;0.10;99.90
65462;DHT22;53236;43.666;18.444;2023-03-01T04:16:19;0.10;99.90
65462;DHT22;53236;43.666;18.444;2023-03-01T04:18:45;0.10;99.90
65462;DHT22;53236;43.666;18.444;2023-03-01T04:21:11;0.10;99.90
65462;DHT22;53236;43.666;18.444;2023-03-01T04:23:37;0.10;99.90
65462;DHT22;53236;43.666;18.444;2023-03-01T04:26:03;0.00;99.90
65462;DHT22;53236;43.666;18.444;2023-03-01T04:28:37;0.00;99.90
65462;DHT22;53236;43.666;18.444;2023-03-01T04:31:10;-0.10;99.90
65462;DHT22;53236;43.666;18.444;2023-03-01T04:33:59;-0.10;99.90
65462;DHT22;53236;43.666;18.444;2023-03-01T04:36:27;-0.10;99.90
65462;DHT22;53236;43.666;18.444;2023-03-01T04:38:54;0.00;99.90
65462;DHT22;53236;43.666;18.444;2023-03-01T04:41:22;0.00;99.90
65462;DHT22;53236;43.666;18.444;2023-03-01T04:43:48;0.00;99.90
65462;DHT22;53236;43.666;18.444;2023-03-01T04:46:17;0.00;99.90
65462;DHT22;53236;43.666;18.444;2023-03-01T04:48:44;0.00;99.90
65462;DHT22;53236;43.666;18.444;2023-03-01T04:51:11;-0.10;99.90
65462;DHT22;53236;43.666;18.444;2023-03-01T04:53:41;-0.10;99.90
65462;DHT22;53236;43.666;18.444;2023-03-01T04:56:07;0.00;99.90
65462;DHT22;53236;43.666;18.444;2023-03-01T04:58:33;0.00;99.90
65462;DHT22;53236;43.666;18.444;2023-03-01T05:00:59;0.00;99.90
65462;DHT22;53236;43.666;18.444;2023-03-01T05:03:24;0.00;99.90
65462;DHT22;53236;43.666;18.444;2023-03-01T05:05:52;0.00;99.90
65462;DHT22;53236;43.666;18.444;2023-03-01T05:08:18;0.00;99.90
65462;DHT22;53236;43.666;18.444;2023-03-01T05:10:52;0.00;99.90
65462;DHT22;53236;43.666;18.444;2023-03-01T05:13:19;0.00;99.90
65462;DHT22;53236;43.666;18.444;2023-03-01T05:15:56;-0.10;99.90
65462;DHT22;53236;43.666;18.444;2023-03-01T05:18:23;-0.10;99.90
65462;DHT22;53236;43.666;18.444;2023-03-01T05:20:53;-0.10;99.90
65462;DHT22;53236;43.666;18.444;2023-03-01T05:23:24;-0.10;99.90
65462;DHT22;53236;43.666;18.444;2023-03-01T05:25:50;-0.10;99.90
65462;DHT22;53236;43.666;18.444;2023-03-01T05:28:19;0.00;99.90
65462;DHT22;53236;43.666;18.444;2023-03-01T05:30:45;-0.10;99.90
65462;DHT22;53236;43.666;18.444;2023-03-01T05:33:11;0.00;99.90
65462;DHT22;53236;43.666;18.444;2023-03-01T05:35:44;0.00;99.90
65462;DHT22;53236;43.666;18.444;2023-03-01T05:38:11;0.00;99.90
65462;DHT22;53236;43.666;18.444;2023-03-01T05:40:41;0.00;99.90
65462;DHT22;53236;43.666;18.444;2023-03-01T05:43:07;0.00;99.90
65462;DHT22;53236;43.666;18.444;2023-03-01T05:45:36;0.00;99.90
65462;DHT22;53236;43.666;18.444;2023-03-01T05:48:02;0.00;99.90
65462;DHT22;53236;43.666;18.444;2023-03-01T05:50:30;0.00;99.90
65462;DHT22;53236;43.666;18.444;2023-03-01T05:55:24;0.20;99.90
65462;DHT22;53236;43.666;18.444;2023-03-01T05:57:50;0.20;99.90
65462;DHT22;53236;43.666;18.444;2023-03-01T06:00:18;0.10;99.90
65462;DHT22;53236;43.666;18.444;2023-03-01T06:02:44;0.10;99.90
65462;DHT22;53236;43.666;18.444;2023-03-01T06:05:12;0.20;99.90
65462;DHT22;53236;43.666;18.444;2023-03-01T06:07:38;0.20;99.90
65462;DHT22;53236;43.666;18.444;2023-03-01T06:10:04;0.20;99.90
65462;DHT22;53236;43.666;18.444;2023-03-01T06:12:35;0.20;99.90
65462;DHT22;53236;43.666;18.444;2023-03-01T06:15:02;0.30;99.90
65462;DHT22;53236;43.666;18.444;2023-03-01T06:17:33;0.30;99.90
65462;DHT22;53236;43.666;18.444;2023-03-01T06:20:06;0.40;99.90
65462;DHT22;53236;43.666;18.444;2023-03-01T06:22:33;0.40;99.90
65462;DHT22;53236;43.666;18.444;2023-03-01T06:24:58;0.50;99.90
65462;DHT22;53236;43.666;18.444;2023-03-01T06:27:24;0.50;99.90
65462;DHT22;53236;43.666;18.444;2023-03-01T06:29:50;0.60;99.90
65462;DHT22;53236;43.666;18.444;2023-03-01T06:32:16;0.60;99.90
65462;DHT22;53236;43.666;18.444;2023-03-01T06:34:41;0.60;99.90
65462;DHT22;53236;43.666;18.444;2023-03-01T06:37:08;0.60;99.90
65462;DHT22;53236;43.666;18.444;2023-03-01T06:39:33;0.60;99.90
65462;DHT22;53236;43.666;18.444;2023-03-01T06:41:59;0.60;99.90
65462;DHT22;53236;43.666;18.444;2023-03-01T06:44:26;0.70;99.90
65462;DHT22;53236;43.666;18.444;2023-03-01T06:46:52;0.70;99.90
65462;DHT22;53236;43.666;18.444;2023-03-01T06:49:17;0.60;99.90
65462;DHT22;53236;43.666;18.444;2023-03-01T06:51:44;0.60;99.90
65462;DHT22;53236;43.666;18.444;2023-03-01T06:54:10;0.60;99.90
65462;DHT22;53236;43.666;18.444;2023-03-01T06:56:36;0.60;99.90
65462;DHT22;53236;43.666;18.444;2023-03-01T06:59:02;0.70;99.90
65462;DHT22;53236;43.666;18.444;2023-03-01T07:01:28;0.70;99.90
65462;DHT22;53236;43.666;18.444;2023-03-01T07:03:54;0.80;99.90
65462;DHT22;53236;43.666;18.444;2023-03-01T07:06:21;0.80;99.90
65462;DHT22;53236;43.666;18.444;2023-03-01T07:08:46;0.80;99.90
65462;DHT22;53236;43.666;18.444;2023-03-01T07:11:13;0.90;99.90
65462;DHT22;53236;43.666;18.444;2023-03-01T07:13:39;0.90;99.90
65462;DHT22;53236;43.666;18.444;2023-03-01T07:16:05;0.90;99.90
65462;DHT22;53236;43.666;18.444;2023-03-01T07:18:31;1.00;99.90
65462;DHT22;53236;43.666;18.444;2023-03-01T07:20:56;1.00;99.90
65462;DHT22;53236;43.666;18.444;2023-03-01T07:23:22;1.00;99.90
65462;DHT22;53236;43.666;18.444;2023-03-01T07:25:54;1.00;99.90
65462;DHT22;53236;43.666;18.444;2023-03-01T07:28:22;1.10;99.90
65462;DHT22;53236;43.666;18.444;2023-03-01T07:30:48;1.10;99.90
65462;DHT22;53236;43.666;18.444;2023-03-01T07:33:14;1.10;99.90
65462;DHT22;53236;43.666;18.444;2023-03-01T07:35:40;1.20;99.90
65462;DHT22;53236;43.666;18.444;2023-03-01T07:38:05;1.30;99.90
65462;DHT22;53236;43.666;18.444;2023-03-01T07:40:31;1.30;99.90
65462;DHT22;53236;43.666;18.444;2023-03-01T07:42:58;1.40;99.90
65462;DHT22;53236;43.666;18.444;2023-03-01T07:45:27;1.50;99.90
65462;DHT22;53236;43.666;18.444;2023-03-01T07:47:53;1.50;99.90
65462;DHT22;53236;43.666;18.444;2023-03-01T07:50:20;1.50;99.90
65462;DHT22;53236;43.666;18.444;2023-03-01T07:52:47;1.50;99.90
65462;DHT22;53236;43.666;18.444;2023-03-01T07:55:12;1.50;99.90
65462;DHT22;53236;43.666;18.444;2023-03-01T07:57:38;1.60;99.90
65462;DHT22;53236;43.666;18.444;2023-03-01T08:00:05;1.60;99.90
65462;DHT22;53236;43.666;18.444;2023-03-01T08:02:31;1.60;99.90
65462;DHT22;53236;43.666;18.444;2023-03-01T08:04:57;1.70;99.90
65462;DHT22;53236;43.666;18.444;2023-03-01T08:07:23;1.60;99.90
65462;DHT22;53236;43.666;18.444;2023-03-01T08:09:48;1.60;99.90
65462;DHT22;53236;43.666;18.444;2023-03-01T08:12:14;1.50;99.90
65462;DHT22;53236;43.666;18.444;2023-03-01T08:14:42;1.50;99.90
65462;DHT22;53236;43.666;18.444;2023-03-01T08:17:07;1.60;99.90
65462;DHT22;53236;43.666;18.444;2023-03-01T08:19:33;1.60;99.90
65462;DHT22;53236;43.666;18.444;2023-03-01T08:22:01;1.60;99.90
65462;DHT22;53236;43.666;18.444;2023-03-01T08:24:27;1.60;99.90
65462;DHT22;53236;43.666;18.444;2023-03-01T08:26:53;1.50;99.90
65462;DHT22;53236;43.666;18.444;2023-03-01T08:29:19;1.50;99.90
65462;DHT22;53236;43.666;18.444;2023-03-01T08:31:45;1.40;99.90
65462;DHT22;53236;43.666;18.444;2023-03-01T08:34:13;1.50;99.90
65462;DHT22;53236;43.666;18.444;2023-03-01T08:36:44;1.50;99.90
65462;DHT22;53236;43.666;18.444;2023-03-01T08:39:12;1.40;99.90
65462;DHT22;53236;43.666;18.444;2023-03-01T08:41:39;1.50;99.90
65462;DHT22;53236;43.666;18.444;2023-03-01T08:44:05;1.40;99.90
65462;DHT22;53236;43.666;18.444;2023-03-01T08:46:34;1.40;99.90
65462;DHT22;53236;43.666;18.444;2023-03-01T08:49:07;1.40;99.90
65462;DHT22;53236;43.666;18.444;2023-03-01T08:51:33;1.40;99.90
65462;DHT22;53236;43.666;18.444;2023-03-01T08:54:03;1.40;99.90
65462;DHT22;53236;43.666;18.444;2023-03-01T08:56:30;1.40;99.90
65462;DHT22;53236;43.666;18.444;2023-03-01T08:58:56;1.40;99.90
65462;DHT22;53236;43.666;18.444;2023-03-01T09:01:21;1.50;99.90
65462;DHT22;53236;43.666;18.444;2023-03-01T09:03:47;1.50;99.90
65462;DHT22;53236;43.666;18.444;2023-03-01T09:06:14;1.60;99.90
65462;DHT22;53236;43.666;18.444;2023-03-01T09:08:42;1.50;99.90
65462;DHT22;53236;43.666;18.444;2023-03-01T09:11:09;1.60;99.90
65462;DHT22;53236;43.666;18.444;2023-03-01T09:13:36;1.70;99.90
65462;DHT22;53236;43.666;18.444;2023-03-01T09:16:04;1.60;99.90
65462;DHT22;53236;43.666;18.444;2023-03-01T09:18:30;1.70;99.90
65462;DHT22;53236;43.666;18.444;2023-03-01T09:21:10;1.80;99.90
65462;DHT22;53236;43.666;18.444;2023-03-01T09:23:38;1.80;99.90
65462;DHT22;53236;43.666;18.444;2023-03-01T09:26:09;1.90;99.90
65462;DHT22;53236;43.666;18.444;2023-03-01T09:28:36;1.90;99.90
65462;DHT22;53236;43.666;18.444;2023-03-01T09:31:03;2.10;99.90
65462;DHT22;53236;43.666;18.444;2023-03-01T09:33:30;2.10;99.90
65462;DHT22;53236;43.666;18.444;2023-03-01T09:36:01;2.10;99.90
65462;DHT22;53236;43.666;18.444;2023-03-01T09:38:27;2.20;99.90
65462;DHT22;53236;43.666;18.444;2023-03-01T09:40:53;2.20;99.90
65462;DHT22;53236;43.666;18.444;2023-03-01T09:46:07;2.30;99.90
65462;DHT22;53236;43.666;18.444;2023-03-01T09:48:48;2.20;99.90
65462;DHT22;53236;43.666;18.444;2023-03-01T09:51:26;2.10;99.90
65462;DHT22;53236;43.666;18.444;2023-03-01T09:53:52;2.20;99.90
65462;DHT22;53236;43.666;18.444;2023-03-01T09:56:29;2.30;99.90
65462;DHT22;53236;43.666;18.444;2023-03-01T09:59:20;2.50;99.90
65462;DHT22;53236;43.666;18.444;2023-03-01T10:04:46;2.70;99.90
65462;DHT22;53236;43.666;18.444;2023-03-01T10:10:07;2.80;99.90
65462;DHT22;53236;43.666;18.444;2023-03-01T10:12:37;2.80;99.90
65462;DHT22;53236;43.666;18.444;2023-03-01T10:17:50;2.90;99.90
65462;DHT22;53236;43.666;18.444;2023-03-01T10:20:23;3.00;99.90
65462;DHT22;53236;43.666;18.444;2023-03-01T10:22:50;3.10;99.90
65462;DHT22;53236;43.666;18.444;2023-03-01T10:30:59;3.50;99.90
65462;DHT22;53236;43.666;18.444;2023-03-01T10:33:32;3.60;99.90
65462;DHT22;53236;43.666;18.444;2023-03-01T10:36:01;3.70;99.90
65462;DHT22;53236;43.666;18.444;2023-03-01T10:38:31;3.80;99.90
65462;DHT22;53236;43.666;18.444;2023-03-01T10:41:11;3.80;99.90
65462;DHT22;53236;43.666;18.444;2023-03-01T10:43:55;3.80;99.90
65462;DHT22;53236;43.666;18.444;2023-03-01T10:49:18;3.80;99.90
65462;DHT22;53236;43.666;18.444;2023-03-01T10:51:46;4.00;99.90
65462;DHT22;53236;43.666;18.444;2023-03-01T10:56:53;4.10;99.90
65462;DHT22;53236;43.666;18.444;2023-03-01T10:59:29;3.80;99.90
65462;DHT22;53236;43.666;18.444;2023-03-01T11:05:13;3.80;99.90
65462;DHT22;53236;43.666;18.444;2023-03-01T11:07:52;3.80;99.90
65462;DHT22;53236;43.666;18.444;2023-03-01T11:10:27;3.80;99.90
65462;DHT22;53236;43.666;18.444;2023-03-01T11:12:53;3.90;99.90
65462;DHT22;53236;43.666;18.444;2023-03-01T11:15:30;3.80;99.90
65462;DHT22;53236;43.666;18.444;2023-03-01T11:17:57;3.80;99.90
65462;DHT22;53236;43.666;18.444;2023-03-01T11:22:55;3.20;99.90
65462;DHT22;53236;43.666;18.444;2023-03-01T11:25:31;3.00;99.90
65462;DHT22;53236;43.666;18.444;2023-03-01T11:28:00;3.00;99.90
65462;DHT22;53236;43.666;18.444;2023-03-01T11:30:30;2.80;99.90
65462;DHT22;53236;43.666;18.444;2023-03-01T11:35:53;2.70;99.90
65462;DHT22;53236;43.666;18.444;2023-03-01T11:38:23;2.80;99.90
65462;DHT22;53236;43.666;18.444;2023-03-01T11:43:36;2.90;99.90
65462;DHT22;53236;43.666;18.444;2023-03-01T11:51:48;2.70;99.90
65462;DHT22;53236;43.666;18.444;2023-03-01T11:54:47;2.70;99.90
65462;DHT22;53236;43.666;18.444;2023-03-01T12:06:21;3.00;99.90
65462;DHT22;53236;43.666;18.444;2023-03-01T12:23:09;2.90;99.90
65462;DHT22;53236;43.666;18.444;2023-03-01T12:25:58;2.90;99.90
65462;DHT22;53236;43.666;18.444;2023-03-01T12:39:42;2.90;99.90
65462;DHT22;53236;43.666;18.444;2023-03-01T12:47:46;2.90;99.90
65462;DHT22;53236;43.666;18.444;2023-03-01T12:50:28;2.90;99.90
65462;DHT22;53236;43.666;18.444;2023-03-01T12:52:57;2.90;99.90
65462;DHT22;53236;43.666;18.444;2023-03-01T12:55:30;2.80;99.90
65462;DHT22;53236;43.666;18.444;2023-03-01T13:00:38;2.80;99.90
65462;DHT22;53236;43.666;18.444;2023-03-01T13:03:25;2.60;99.90
65462;DHT22;53236;43.666;18.444;2023-03-01T13:06:21;2.60;99.90
65462;DHT22;53236;43.666;18.444;2023-03-01T13:11:23;2.30;99.90
65462;DHT22;53236;43.666;18.444;2023-03-01T13:13:49;2.10;99.90
65462;DHT22;53236;43.666;18.444;2023-03-01T13:18:46;2.00;99.90
65462;DHT22;53236;43.666;18.444;2023-03-01T13:21:12;1.90;99.90
65462;DHT22;53236;43.666;18.444;2023-03-01T13:23:39;1.90;99.90
65462;DHT22;53236;43.666;18.444;2023-03-01T13:33:47;1.80;99.90
65462;DHT22;53236;43.666;18.444;2023-03-01T13:39:28;1.70;99.90
65462;DHT22;53236;43.666;18.444;2023-03-01T13:41:56;1.70;99.90
65462;DHT22;53236;43.666;18.444;2023-03-01T13:50:02;1.80;99.90
65462;DHT22;53236;43.666;18.444;2023-03-01T13:52:38;1.80;99.90
65462;DHT22;53236;43.666;18.444;2023-03-01T13:55:37;1.90;99.90
65462;DHT22;53236;43.666;18.444;2023-03-01T13:58:23;2.00;99.90
65462;DHT22;53236;43.666;18.444;2023-03-01T14:03:24;2.10;99.90
65462;DHT22;53236;43.666;18.444;2023-03-01T14:08:28;2.20;99.90
65462;DHT22;53236;43.666;18.444;2023-03-01T14:14:04;2.00;99.90
65462;DHT22;53236;43.666;18.444;2023-03-01T14:19:17;1.80;99.90
65462;DHT22;53236;43.666;18.444;2023-03-01T14:21:44;1.70;99.90
65462;DHT22;53236;43.666;18.444;2023-03-01T14:24:21;1.70;99.90
65462;DHT22;53236;43.666;18.444;2023-03-01T14:26:49;1.70;99.90
65462;DHT22;53236;43.666;18.444;2023-03-01T14:29:34;1.70;99.90
65462;DHT22;53236;43.666;18.444;2023-03-01T14:32:21;1.80;99.90
65462;DHT22;53236;43.666;18.444;2023-03-01T14:34:48;1.80;99.90
65462;DHT22;53236;43.666;18.444;2023-03-01T14:37:29;1.80;99.90
65462;DHT22;53236;43.666;18.444;2023-03-01T14:39:56;1.90;99.90
65462;DHT22;53236;43.666;18.444;2023-03-01T14:42:24;1.80;99.90
65462;DHT22;53236;43.666;18.444;2023-03-01T14:44:53;1.90;99.90
65462;DHT22;53236;43.666;18.444;2023-03-01T14:47:37;1.90;99.90
65462;DHT22;53236;43.666;18.444;2023-03-01T14:50:13;2.00;99.90
65462;DHT22;53236;43.666;18.444;2023-03-01T14:52:44;2.10;99.90
65462;DHT22;53236;43.666;18.444;2023-03-01T14:55:17;2.10;99.90
65462;DHT22;53236;43.666;18.444;2023-03-01T14:57:53;2.10;99.90
65462;DHT22;53236;43.666;18.444;2023-03-01T15:00:20;2.10;99.90
65462;DHT22;53236;43.666;18.444;2023-03-01T15:02:48;2.10;99.90
65462;DHT22;53236;43.666;18.444;2023-03-01T15:05:25;2.00;99.90
65462;DHT22;53236;43.666;18.444;2023-03-01T15:07:51;2.10;99.90
65462;DHT22;53236;43.666;18.444;2023-03-01T15:10:29;2.10;99.90
65462;DHT22;53236;43.666;18.444;2023-03-01T15:12:56;2.20;99.90
65462;DHT22;53236;43.666;18.444;2023-03-01T15:20:40;2.10;99.90
65462;DHT22;53236;43.666;18.444;2023-03-01T15:23:06;2.10;99.90
65462;DHT22;53236;43.666;18.444;2023-03-01T15:25:44;2.00;99.90
65462;DHT22;53236;43.666;18.444;2023-03-01T15:28:18;2.00;99.90
65462;DHT22;53236;43.666;18.444;2023-03-01T15:30:45;2.00;99.90
65462;DHT22;53236;43.666;18.444;2023-03-01T15:35:54;1.90;99.90
65462;DHT22;53236;43.666;18.444;2023-03-01T15:38:30;1.70;99.90
65462;DHT22;53236;43.666;18.444;2023-03-01T15:40:58;1.60;99.90
65462;DHT22;53236;43.666;18.444;2023-03-01T15:43:40;1.60;99.90
65462;DHT22;53236;43.666;18.444;2023-03-01T15:48:52;1.60;99.90
65462;DHT22;53236;43.666;18.444;2023-03-01T15:51:54;1.60;99.90
65462;DHT22;53236;43.666;18.444;2023-03-01T15:54:22;1.50;99.90
65462;DHT22;53236;43.666;18.444;2023-03-01T15:56:49;1.40;99.90
65462;DHT22;53236;43.666;18.444;2023-03-01T15:59:16;1.40;99.90
65462;DHT22;53236;43.666;18.444;2023-03-01T16:01:42;1.40;99.90
65462;DHT22;53236;43.666;18.444;2023-03-01T16:04:12;1.30;99.90
65462;DHT22;53236;43.666;18.444;2023-03-01T16:06:42;1.30;99.90
65462;DHT22;53236;43.666;18.444;2023-03-01T16:09:07;1.30;99.90
65462;DHT22;53236;43.666;18.444;2023-03-01T16:11:35;1.40;99.90
65462;DHT22;53236;43.666;18.444;2023-03-01T16:14:02;1.40;99.90
65462;DHT22;53236;43.666;18.444;2023-03-01T16:16:28;1.40;99.90
65462;DHT22;53236;43.666;18.444;2023-03-01T16:18:53;1.40;99.90
65462;DHT22;53236;43.666;18.444;2023-03-01T16:21:23;1.30;99.90
65462;DHT22;53236;43.666;18.444;2023-03-01T16:23:49;1.40;99.90
65462;DHT22;53236;43.666;18.444;2023-03-01T16:26:16;1.30;99.90
65462;DHT22;53236;43.666;18.444;2023-03-01T16:28:44;1.30;99.90
65462;DHT22;53236;43.666;18.444;2023-03-01T16:31:10;1.30;99.90
65462;DHT22;53236;43.666;18.444;2023-03-01T16:33:37;1.30;99.90
65462;DHT22;53236;43.666;18.444;2023-03-01T16:36:10;1.30;99.90
65462;DHT22;53236;43.666;18.444;2023-03-01T16:38:37;1.20;99.90
65462;DHT22;53236;43.666;18.444;2023-03-01T16:41:04;1.10;99.90
65462;DHT22;53236;43.666;18.444;2023-03-01T16:43:30;1.00;99.90
65462;DHT22;53236;43.666;18.444;2023-03-01T16:45:56;1.00;99.90
65462;DHT22;53236;43.666;18.444;2023-03-01T16:48:24;1.00;99.90
65462;DHT22;53236;43.666;18.444;2023-03-01T16:51:00;1.00;99.90
65462;DHT22;53236;43.666;18.444;2023-03-01T16:53:27;0.90;99.90
65462;DHT22;53236;43.666;18.444;2023-03-01T16:55:54;0.90;99.90
65462;DHT22;53236;43.666;18.444;2023-03-01T16:58:20;0.90;99.90
65462;DHT22;53236;43.666;18.444;2023-03-01T17:00:46;1.00;99.90
65462;DHT22;53236;43.666;18.444;2023-03-01T17:03:11;0.90;99.90
65462;DHT22;53236;43.666;18.444;2023-03-01T17:05:40;0.90;99.90
65462;DHT22;53236;43.666;18.444;2023-03-01T17:08:06;0.90;99.90
65462;DHT22;53236;43.666;18.444;2023-03-01T17:10:32;0.90;99.90
65462;DHT22;53236;43.666;18.444;2023-03-01T17:12:58;0.80;99.90
65462;DHT22;53236;43.666;18.444;2023-03-01T17:15:24;0.80;99.90
65462;DHT22;53236;43.666;18.444;2023-03-01T17:17:50;0.80;99.90
65462;DHT22;53236;43.666;18.444;2023-03-01T17:20:16;0.80;99.90
65462;DHT22;53236;43.666;18.444;2023-03-01T17:22:42;0.80;99.90
65462;DHT22;53236;43.666;18.444;2023-03-01T17:25:11;0.80;99.90
65462;DHT22;53236;43.666;18.444;2023-03-01T17:27:38;0.80;99.90
65462;DHT22;53236;43.666;18.444;2023-03-01T17:30:06;0.80;99.90
65462;DHT22;53236;43.666;18.444;2023-03-01T17:32:32;0.80;99.90
65462;DHT22;53236;43.666;18.444;2023-03-01T17:34:57;0.80;99.90
65462;DHT22;53236;43.666;18.444;2023-03-01T17:37:23;0.80;99.90
65462;DHT22;53236;43.666;18.444;2023-03-01T17:39:49;0.80;99.90
65462;DHT22;53236;43.666;18.444;2023-03-01T17:42:15;0.80;99.90
65462;DHT22;53236;43.666;18.444;2023-03-01T17:44:40;0.80;99.90
65462;DHT22;53236;43.666;18.444;2023-03-01T17:47:06;0.80;99.90
65462;DHT22;53236;43.666;18.444;2023-03-01T17:49:32;0.80;99.90
65462;DHT22;53236;43.666;18.444;2023-03-01T17:51:58;0.80;99.90
65462;DHT22;53236;43.666;18.444;2023-03-01T17:54:24;0.80;99.90
65462;DHT22;53236;43.666;18.444;2023-03-01T17:56:50;0.80;99.90